sensor_id;sensor_type;location;lat;lon;timestamp;P1;durP1;ratioP1;P2;durP2;ratioP2
1414;SDS011;702;49.466;11.086;2023-10-31T00:00:34;11.17;;;9.80;;
1414;SDS011;702;49.466;11.086;2023-10-31T00:03:03;10.33;;;8.90;;
1414;SDS011;702;49.466;11.086;2023-10-31T00:05:31;9.10;;;8.20;;
1414;SDS011;702;49.466;11.086;2023-10-31T00:07:58;10.10;;;9.10;;
1414;SDS011;702;49.466;11.086;2023-10-31T00:10:25;9.60;;;8.60;;
1414;SDS011;702;49.466;11.086;2023-10-31T00:12:53;9.87;;;8.87;;
1414;SDS011;702;49.466;11.086;2023-10-31T00:15:20;10.20;;;9.13;;
1414;SDS011;702;49.466;11.086;2023-10-31T00:17:50;10.67;;;9.70;;
1414;SDS011;702;49.466;11.086;2023-10-31T00:20:19;10.23;;;9.30;;
1414;SDS011;702;49.466;11.086;2023-10-31T00:22:47;9.57;;;8.70;;
1414;SDS011;702;49.466;11.086;2023-10-31T00:25:14;9.83;;;8.77;;
1414;SDS011;702;49.466;11.086;2023-10-31T00:27:42;11.43;;;9.20;;
1414;SDS011;702;49.466;11.086;2023-10-31T00:30:09;9.37;;;8.53;;
1414;SDS011;702;49.466;11.086;2023-10-31T00:32:37;9.27;;;8.37;;
1414;SDS011;702;49.466;11.086;2023-10-31T00:35:05;8.73;;;7.20;;
1414;SDS011;702;49.466;11.086;2023-10-31T00:37:34;8.30;;;7.57;;
1414;SDS011;702;49.466;11.086;2023-10-31T00:40:02;8.10;;;7.30;;
1414;SDS011;702;49.466;11.086;2023-10-31T00:42:30;8.00;;;7.10;;
1414;SDS011;702;49.466;11.086;2023-10-31T00:44:58;7.30;;;6.70;;
1414;SDS011;702;49.466;11.086;2023-10-31T00:47:25;10.93;;;7.50;;
1414;SDS011;702;49.466;11.086;2023-10-31T00:49:52;7.90;;;7.10;;
1414;SDS011;702;49.466;11.086;2023-10-31T00:52:20;8.20;;;7.50;;
1414;SDS011;702;49.466;11.086;2023-10-31T00:54:49;7.57;;;6.87;;
1414;SDS011;702;49.466;11.086;2023-10-31T00:57:16;7.80;;;7.20;;
1414;SDS011;702;49.466;11.086;2023-10-31T00:59:44;7.60;;;6.90;;
1414;SDS011;702;49.466;11.086;2023-10-31T01:02:11;9.50;;;7.03;;
1414;SDS011;702;49.466;11.086;2023-10-31T01:04:38;7.80;;;7.03;;
1414;SDS011;702;49.466;11.086;2023-10-31T01:07:06;8.43;;;6.67;;
1414;SDS011;702;49.466;11.086;2023-10-31T01:09:36;7.40;;;5.83;;
1414;SDS011;702;49.466;11.086;2023-10-31T01:12:06;6.47;;;5.87;;
1414;SDS011;702;49.466;11.086;2023-10-31T01:14:36;6.87;;;6.10;;
1414;SDS011;702;49.466;11.086;2023-10-31T01:17:03;6.77;;;6.17;;
1414;SDS011;702;49.466;11.086;2023-10-31T01:19:30;6.40;;;5.80;;
1414;SDS011;702;49.466;11.086;2023-10-31T01:21:58;6.10;;;5.50;;
1414;SDS011;702;49.466;11.086;2023-10-31T01:24:25;5.03;;;4.63;;
1414;SDS011;702;49.466;11.086;2023-10-31T01:26:52;5.00;;;4.50;;
1414;SDS011;702;49.466;11.086;2023-10-31T01:29:22;5.37;;;4.63;;
1414;SDS011;702;49.466;11.086;2023-10-31T01:31:49;4.50;;;4.10;;
1414;SDS011;702;49.466;11.086;2023-10-31T01:34:16;4.50;;;3.87;;
1414;SDS011;702;49.466;11.086;2023-10-31T01:36:44;3.33;;;3.10;;
1414;SDS011;702;49.466;11.086;2023-10-31T01:39:11;5.07;;;3.50;;
1414;SDS011;702;49.466;11.086;2023-10-31T01:41:40;5.10;;;2.87;;
1414;SDS011;702;49.466;11.086;2023-10-31T01:44:08;2.93;;;2.60;;
1414;SDS011;702;49.466;11.086;2023-10-31T01:46:37;2.50;;;2.30;;
1414;SDS011;702;49.466;11.086;2023-10-31T01:49:04;2.10;;;1.90;;
1414;SDS011;702;49.466;11.086;2023-10-31T01:51:31;2.20;;;2.10;;
1414;SDS011;702;49.466;11.086;2023-10-31T01:54:00;1.97;;;1.87;;
1414;SDS011;702;49.466;11.086;2023-10-31T01:56:27;2.00;;;1.90;;
1414;SDS011;702;49.466;11.086;2023-10-31T01:58:54;1.70;;;1.60;;
1414;SDS011;702;49.466;11.086;2023-10-31T02:01:22;1.30;;;1.20;;
1414;SDS011;702;49.466;11.086;2023-10-31T02:03:51;1.50;;;1.40;;
1414;SDS011;702;49.466;11.086;2023-10-31T02:06:20;1.77;;;1.67;;
1414;SDS011;702;49.466;11.086;2023-10-31T02:08:48;1.37;;;1.27;;
1414;SDS011;702;49.466;11.086;2023-10-31T02:11:16;1.83;;;1.00;;
1414;SDS011;702;49.466;11.086;2023-10-31T02:13:43;1.20;;;1.10;;
1414;SDS011;702;49.466;11.086;2023-10-31T02:16:10;3.43;;;1.13;;
1414;SDS011;702;49.466;11.086;2023-10-31T02:18:38;1.13;;;0.73;;
1414;SDS011;702;49.466;11.086;2023-10-31T02:21:06;0.90;;;0.70;;
1414;SDS011;702;49.466;11.086;2023-10-31T02:23:34;0.80;;;0.73;;
1414;SDS011;702;49.466;11.086;2023-10-31T02:26:02;0.60;;;0.50;;
1414;SDS011;702;49.466;11.086;2023-10-31T02:28:29;1.70;;;0.97;;
1414;SDS011;702;49.466;11.086;2023-10-31T02:30:57;0.70;;;0.50;;
1414;SDS011;702;49.466;11.086;2023-10-31T02:33:25;2.73;;;0.60;;
1414;SDS011;702;49.466;11.086;2023-10-31T02:35:52;1.20;;;1.10;;
1414;SDS011;702;49.466;11.086;2023-10-31T02:38:20;0.80;;;0.80;;
1414;SDS011;702;49.466;11.086;2023-10-31T02:40:49;0.60;;;0.60;;
1414;SDS011;702;49.466;11.086;2023-10-31T02:43:17;0.70;;;0.63;;
1414;SDS011;702;49.466;11.086;2023-10-31T02:45:44;1.17;;;0.90;;
1414;SDS011;702;49.466;11.086;2023-10-31T02:48:11;1.83;;;0.80;;
1414;SDS011;702;49.466;11.086;2023-10-31T02:50:39;0.87;;;0.83;;
1414;SDS011;702;49.466;11.086;2023-10-31T02:53:06;0.60;;;0.50;;
1414;SDS011;702;49.466;11.086;2023-10-31T02:55:33;8.20;;;1.43;;
1414;SDS011;702;49.466;11.086;2023-10-31T02:58:02;0.57;;;0.57;;
1414;SDS011;702;49.466;11.086;2023-10-31T03:00:29;0.83;;;0.70;;
1414;SDS011;702;49.466;11.086;2023-10-31T03:02:57;1.07;;;0.90;;
1414;SDS011;702;49.466;11.086;2023-10-31T03:05:24;0.67;;;0.67;;
1414;SDS011;702;49.466;11.086;2023-10-31T03:07:52;0.50;;;0.50;;
1414;SDS011;702;49.466;11.086;2023-10-31T03:10:19;0.97;;;0.73;;
1414;SDS011;702;49.466;11.086;2023-10-31T03:12:47;0.67;;;0.67;;
1414;SDS011;702;49.466;11.086;2023-10-31T03:15:16;0.90;;;0.67;;
1414;SDS011;702;49.466;11.086;2023-10-31T03:17:43;0.60;;;0.60;;
1414;SDS011;702;49.466;11.086;2023-10-31T03:20:11;3.30;;;1.00;;
1414;SDS011;702;49.466;11.086;2023-10-31T03:22:38;0.90;;;0.90;;
1414;SDS011;702;49.466;11.086;2023-10-31T03:25:06;0.93;;;0.93;;
1414;SDS011;702;49.466;11.086;2023-10-31T03:27:34;1.53;;;0.70;;
1414;SDS011;702;49.466;11.086;2023-10-31T03:30:01;1.53;;;1.00;;
1414;SDS011;702;49.466;11.086;2023-10-31T03:32:31;0.70;;;0.70;;
1414;SDS011;702;49.466;11.086;2023-10-31T03:34:59;3.53;;;1.57;;
1414;SDS011;702;49.466;11.086;2023-10-31T03:37:26;1.30;;;1.17;;
1414;SDS011;702;49.466;11.086;2023-10-31T03:39:53;1.17;;;1.00;;
1414;SDS011;702;49.466;11.086;2023-10-31T03:42:20;1.40;;;1.30;;
1414;SDS011;702;49.466;11.086;2023-10-31T03:44:48;1.07;;;0.97;;
1414;SDS011;702;49.466;11.086;2023-10-31T03:47:15;1.40;;;1.20;;
1414;SDS011;702;49.466;11.086;2023-10-31T03:49:44;1.63;;;1.23;;
1414;SDS011;702;49.466;11.086;2023-10-31T03:52:12;2.53;;;1.10;;
1414;SDS011;702;49.466;11.086;2023-10-31T03:54:39;0.80;;;0.80;;
1414;SDS011;702;49.466;11.086;2023-10-31T03:57:06;5.27;;;1.10;;
1414;SDS011;702;49.466;11.086;2023-10-31T03:59:34;1.43;;;0.77;;
1414;SDS011;702;49.466;11.086;2023-10-31T04:02:03;2.20;;;0.80;;
1414;SDS011;702;49.466;11.086;2023-10-31T04:04:30;1.60;;;1.03;;
1414;SDS011;702;49.466;11.086;2023-10-31T04:07:00;0.97;;;0.90;;
1414;SDS011;702;49.466;11.086;2023-10-31T04:09:27;1.80;;;0.83;;
1414;SDS011;702;49.466;11.086;2023-10-31T04:11:54;2.20;;;0.80;;
1414;SDS011;702;49.466;11.086;2023-10-31T04:14:22;1.40;;;1.00;;
1414;SDS011;702;49.466;11.086;2023-10-31T04:16:49;0.90;;;0.73;;
1414;SDS011;702;49.466;11.086;2023-10-31T04:19:17;1.07;;;0.97;;
1414;SDS011;702;49.466;11.086;2023-10-31T04:21:44;1.00;;;0.87;;
1414;SDS011;702;49.466;11.086;2023-10-31T04:24:13;1.53;;;1.37;;
1414;SDS011;702;49.466;11.086;2023-10-31T04:26:40;1.50;;;1.20;;
1414;SDS011;702;49.466;11.086;2023-10-31T04:29:07;1.93;;;1.30;;
1414;SDS011;702;49.466;11.086;2023-10-31T04:31:35;1.53;;;1.43;;
1414;SDS011;702;49.466;11.086;2023-10-31T04:34:02;1.47;;;1.20;;
1414;SDS011;702;49.466;11.086;2023-10-31T04:36:29;1.57;;;1.03;;
1414;SDS011;702;49.466;11.086;2023-10-31T04:38:56;1.90;;;1.50;;
1414;SDS011;702;49.466;11.086;2023-10-31T04:41:25;1.30;;;1.20;;
1414;SDS011;702;49.466;11.086;2023-10-31T04:43:52;1.27;;;1.17;;
1414;SDS011;702;49.466;11.086;2023-10-31T04:46:20;1.43;;;1.33;;
1414;SDS011;702;49.466;11.086;2023-10-31T04:48:47;1.60;;;1.33;;
1414;SDS011;702;49.466;11.086;2023-10-31T04:51:15;1.50;;;1.40;;
1414;SDS011;702;49.466;11.086;2023-10-31T04:53:42;1.27;;;1.23;;
1414;SDS011;702;49.466;11.086;2023-10-31T04:56:11;1.40;;;1.27;;
1414;SDS011;702;49.466;11.086;2023-10-31T04:58:41;1.63;;;1.53;;
1414;SDS011;702;49.466;11.086;2023-10-31T05:01:08;1.80;;;1.13;;
1414;SDS011;702;49.466;11.086;2023-10-31T05:03:37;5.63;;;1.20;;
1414;SDS011;702;49.466;11.086;2023-10-31T05:06:04;1.77;;;1.40;;
1414;SDS011;702;49.466;11.086;2023-10-31T05:08:32;2.30;;;1.50;;
1414;SDS011;702;49.466;11.086;2023-10-31T05:10:59;1.50;;;1.30;;
1414;SDS011;702;49.466;11.086;2023-10-31T05:13:27;1.73;;;1.63;;
1414;SDS011;702;49.466;11.086;2023-10-31T05:15:55;2.60;;;1.30;;
1414;SDS011;702;49.466;11.086;2023-10-31T05:18:22;1.90;;;1.30;;
1414;SDS011;702;49.466;11.086;2023-10-31T05:20:51;6.97;;;1.50;;
1414;SDS011;702;49.466;11.086;2023-10-31T05:23:18;2.37;;;1.10;;
1414;SDS011;702;49.466;11.086;2023-10-31T05:25:46;0.90;;;0.90;;
1414;SDS011;702;49.466;11.086;2023-10-31T05:28:13;1.10;;;1.00;;
1414;SDS011;702;49.466;11.086;2023-10-31T05:30:40;1.37;;;1.10;;
1414;SDS011;702;49.466;11.086;2023-10-31T05:33:09;1.20;;;1.10;;
1414;SDS011;702;49.466;11.086;2023-10-31T05:35:36;1.00;;;0.90;;
1414;SDS011;702;49.466;11.086;2023-10-31T05:38:03;2.40;;;0.90;;
1414;SDS011;702;49.466;11.086;2023-10-31T05:40:30;5.60;;;1.43;;
1414;SDS011;702;49.466;11.086;2023-10-31T05:43:00;1.03;;;0.90;;
1414;SDS011;702;49.466;11.086;2023-10-31T05:45:28;1.40;;;0.90;;
1414;SDS011;702;49.466;11.086;2023-10-31T05:47:56;1.13;;;0.70;;
1414;SDS011;702;49.466;11.086;2023-10-31T05:50:24;1.00;;;0.70;;
1414;SDS011;702;49.466;11.086;2023-10-31T05:52:52;1.87;;;1.23;;
1414;SDS011;702;49.466;11.086;2023-10-31T05:55:19;1.17;;;1.07;;
1414;SDS011;702;49.466;11.086;2023-10-31T05:57:47;2.20;;;0.80;;
1414;SDS011;702;49.466;11.086;2023-10-31T06:00:14;0.83;;;0.83;;
1414;SDS011;702;49.466;11.086;2023-10-31T06:02:42;0.90;;;0.80;;
1414;SDS011;702;49.466;11.086;2023-10-31T06:05:10;1.10;;;0.80;;
1414;SDS011;702;49.466;11.086;2023-10-31T06:07:38;0.90;;;0.80;;
1414;SDS011;702;49.466;11.086;2023-10-31T06:10:06;1.13;;;0.80;;
1414;SDS011;702;49.466;11.086;2023-10-31T06:12:34;1.57;;;1.20;;
1414;SDS011;702;49.466;11.086;2023-10-31T06:15:02;1.43;;;0.80;;
1414;SDS011;702;49.466;11.086;2023-10-31T06:17:29;1.13;;;0.80;;
1414;SDS011;702;49.466;11.086;2023-10-31T06:19:59;0.80;;;0.80;;
1414;SDS011;702;49.466;11.086;2023-10-31T06:22:27;0.80;;;0.63;;
1414;SDS011;702;49.466;11.086;2023-10-31T06:24:57;1.77;;;0.90;;
1414;SDS011;702;49.466;11.086;2023-10-31T06:27:24;2.67;;;0.87;;
1414;SDS011;702;49.466;11.086;2023-10-31T06:29:51;1.17;;;0.80;;
1414;SDS011;702;49.466;11.086;2023-10-31T06:32:19;1.47;;;0.87;;
1414;SDS011;702;49.466;11.086;2023-10-31T06:34:46;0.83;;;0.83;;
1414;SDS011;702;49.466;11.086;2023-10-31T06:37:13;1.00;;;0.83;;
1414;SDS011;702;49.466;11.086;2023-10-31T06:39:40;0.80;;;0.70;;
1414;SDS011;702;49.466;11.086;2023-10-31T06:42:08;2.10;;;0.80;;
1414;SDS011;702;49.466;11.086;2023-10-31T06:44:36;0.70;;;0.70;;
1414;SDS011;702;49.466;11.086;2023-10-31T06:47:03;3.40;;;1.00;;
1414;SDS011;702;49.466;11.086;2023-10-31T06:49:31;0.97;;;0.87;;
1414;SDS011;702;49.466;11.086;2023-10-31T06:51:59;1.63;;;0.90;;
1414;SDS011;702;49.466;11.086;2023-10-31T06:54:26;1.73;;;0.87;;
1414;SDS011;702;49.466;11.086;2023-10-31T06:56:53;2.10;;;1.10;;
1414;SDS011;702;49.466;11.086;2023-10-31T06:59:21;2.10;;;0.90;;
1414;SDS011;702;49.466;11.086;2023-10-31T07:01:48;1.03;;;0.80;;
1414;SDS011;702;49.466;11.086;2023-10-31T07:04:16;2.23;;;0.70;;
1414;SDS011;702;49.466;11.086;2023-10-31T07:06:44;1.67;;;0.50;;
1414;SDS011;702;49.466;11.086;2023-10-31T07:09:11;1.23;;;0.83;;
1414;SDS011;702;49.466;11.086;2023-10-31T07:11:39;3.20;;;0.83;;
1414;SDS011;702;49.466;11.086;2023-10-31T07:14:06;2.10;;;0.80;;
1414;SDS011;702;49.466;11.086;2023-10-31T07:16:35;3.90;;;0.93;;
1414;SDS011;702;49.466;11.086;2023-10-31T07:19:02;2.10;;;1.33;;
1414;SDS011;702;49.466;11.086;2023-10-31T07:21:30;2.77;;;1.50;;
1414;SDS011;702;49.466;11.086;2023-10-31T07:23:57;1.60;;;1.07;;
1414;SDS011;702;49.466;11.086;2023-10-31T07:26:25;0.93;;;0.83;;
1414;SDS011;702;49.466;11.086;2023-10-31T07:28:52;5.60;;;0.90;;
1414;SDS011;702;49.466;11.086;2023-10-31T07:31:19;2.73;;;0.83;;
1414;SDS011;702;49.466;11.086;2023-10-31T07:33:49;1.00;;;0.83;;
1414;SDS011;702;49.466;11.086;2023-10-31T07:36:16;1.20;;;0.90;;
1414;SDS011;702;49.466;11.086;2023-10-31T07:38:43;1.70;;;0.80;;
1414;SDS011;702;49.466;11.086;2023-10-31T07:41:11;3.10;;;1.00;;
1414;SDS011;702;49.466;11.086;2023-10-31T07:43:38;1.53;;;0.80;;
1414;SDS011;702;49.466;11.086;2023-10-31T07:46:05;1.00;;;0.80;;
1414;SDS011;702;49.466;11.086;2023-10-31T07:48:32;1.20;;;0.80;;
1414;SDS011;702;49.466;11.086;2023-10-31T07:51:00;2.07;;;0.80;;
1414;SDS011;702;49.466;11.086;2023-10-31T07:53:28;1.77;;;0.83;;
1414;SDS011;702;49.466;11.086;2023-10-31T07:55:56;0.80;;;0.60;;
1414;SDS011;702;49.466;11.086;2023-10-31T07:58:23;0.90;;;0.70;;
1414;SDS011;702;49.466;11.086;2023-10-31T08:00:50;0.80;;;0.50;;
1414;SDS011;702;49.466;11.086;2023-10-31T08:03:18;0.90;;;0.73;;
1414;SDS011;702;49.466;11.086;2023-10-31T08:05:45;1.17;;;0.70;;
1414;SDS011;702;49.466;11.086;2023-10-31T08:08:13;1.47;;;0.80;;
1414;SDS011;702;49.466;11.086;2023-10-31T08:10:42;1.40;;;1.00;;
1414;SDS011;702;49.466;11.086;2023-10-31T08:13:09;3.23;;;0.53;;
1414;SDS011;702;49.466;11.086;2023-10-31T08:15:37;1.07;;;0.63;;
1414;SDS011;702;49.466;11.086;2023-10-31T08:18:04;1.97;;;0.87;;
1414;SDS011;702;49.466;11.086;2023-10-31T08:20:31;2.07;;;1.20;;
1414;SDS011;702;49.466;11.086;2023-10-31T08:23:00;1.00;;;0.83;;
1414;SDS011;702;49.466;11.086;2023-10-31T08:25:28;2.77;;;0.97;;
1414;SDS011;702;49.466;11.086;2023-10-31T08:27:55;1.97;;;0.67;;
1414;SDS011;702;49.466;11.086;2023-10-31T08:30:22;2.47;;;0.80;;
1414;SDS011;702;49.466;11.086;2023-10-31T08:32:49;1.40;;;0.80;;
1414;SDS011;702;49.466;11.086;2023-10-31T08:35:17;2.40;;;0.87;;
1414;SDS011;702;49.466;11.086;2023-10-31T08:37:44;0.97;;;0.83;;
1414;SDS011;702;49.466;11.086;2023-10-31T08:40:11;1.47;;;0.50;;
1414;SDS011;702;49.466;11.086;2023-10-31T08:42:41;0.73;;;0.70;;
1414;SDS011;702;49.466;11.086;2023-10-31T08:45:08;0.83;;;0.70;;
1414;SDS011;702;49.466;11.086;2023-10-31T08:47:36;4.27;;;1.00;;
1414;SDS011;702;49.466;11.086;2023-10-31T08:50:04;0.97;;;0.90;;
1414;SDS011;702;49.466;11.086;2023-10-31T08:52:34;0.80;;;0.67;;
1414;SDS011;702;49.466;11.086;2023-10-31T08:55:01;1.10;;;0.63;;
1414;SDS011;702;49.466;11.086;2023-10-31T08:57:29;2.73;;;0.80;;
1414;SDS011;702;49.466;11.086;2023-10-31T08:59:58;0.83;;;0.67;;
1414;SDS011;702;49.466;11.086;2023-10-31T09:02:25;2.33;;;0.80;;
1414;SDS011;702;49.466;11.086;2023-10-31T09:04:53;0.70;;;0.60;;
1414;SDS011;702;49.466;11.086;2023-10-31T09:07:20;1.20;;;1.10;;
1414;SDS011;702;49.466;11.086;2023-10-31T09:09:48;1.67;;;0.97;;
1414;SDS011;702;49.466;11.086;2023-10-31T09:12:15;1.53;;;0.80;;
1414;SDS011;702;49.466;11.086;2023-10-31T09:14:43;0.60;;;0.53;;
1414;SDS011;702;49.466;11.086;2023-10-31T09:17:12;2.20;;;0.80;;
1414;SDS011;702;49.466;11.086;2023-10-31T09:19:39;1.90;;;0.77;;
1414;SDS011;702;49.466;11.086;2023-10-31T09:22:07;1.77;;;0.70;;
1414;SDS011;702;49.466;11.086;2023-10-31T09:24:34;2.43;;;0.80;;
1414;SDS011;702;49.466;11.086;2023-10-31T09:27:01;4.20;;;0.70;;
1414;SDS011;702;49.466;11.086;2023-10-31T09:29:29;0.53;;;0.50;;
1414;SDS011;702;49.466;11.086;2023-10-31T09:31:56;1.17;;;0.50;;
1414;SDS011;702;49.466;11.086;2023-10-31T09:34:26;1.53;;;0.50;;
1414;SDS011;702;49.466;11.086;2023-10-31T09:36:53;1.00;;;0.90;;
1414;SDS011;702;49.466;11.086;2023-10-31T09:39:20;0.60;;;0.57;;
1414;SDS011;702;49.466;11.086;2023-10-31T09:41:49;2.40;;;0.83;;
1414;SDS011;702;49.466;11.086;2023-10-31T09:44:16;1.17;;;0.80;;
1414;SDS011;702;49.466;11.086;2023-10-31T09:46:44;2.40;;;0.60;;
1414;SDS011;702;49.466;11.086;2023-10-31T09:49:12;0.90;;;0.80;;
1414;SDS011;702;49.466;11.086;2023-10-31T09:51:40;1.23;;;0.80;;
1414;SDS011;702;49.466;11.086;2023-10-31T09:54:09;0.90;;;0.50;;
1414;SDS011;702;49.466;11.086;2023-10-31T09:56:38;1.10;;;0.80;;
1414;SDS011;702;49.466;11.086;2023-10-31T09:59:06;1.50;;;0.67;;
1414;SDS011;702;49.466;11.086;2023-10-31T10:01:34;4.37;;;0.80;;
1414;SDS011;702;49.466;11.086;2023-10-31T10:04:01;1.23;;;0.87;;
1414;SDS011;702;49.466;11.086;2023-10-31T10:06:29;2.47;;;0.80;;
1414;SDS011;702;49.466;11.086;2023-10-31T10:08:58;4.80;;;0.70;;
1414;SDS011;702;49.466;11.086;2023-10-31T10:11:27;0.83;;;0.60;;
1414;SDS011;702;49.466;11.086;2023-10-31T10:13:56;3.10;;;0.90;;
1414;SDS011;702;49.466;11.086;2023-10-31T10:16:30;0.87;;;0.70;;
1414;SDS011;702;49.466;11.086;2023-10-31T10:19:07;2.10;;;0.80;;
1414;SDS011;702;49.466;11.086;2023-10-31T10:21:48;1.37;;;0.90;;
1414;SDS011;702;49.466;11.086;2023-10-31T10:24:19;2.33;;;0.73;;
1414;SDS011;702;49.466;11.086;2023-10-31T10:26:48;3.00;;;1.33;;
1414;SDS011;702;49.466;11.086;2023-10-31T10:29:16;1.07;;;0.90;;
1414;SDS011;702;49.466;11.086;2023-10-31T10:31:44;0.83;;;0.83;;
1414;SDS011;702;49.466;11.086;2023-10-31T10:34:13;3.10;;;1.10;;
1414;SDS011;702;49.466;11.086;2023-10-31T10:36:43;1.27;;;0.83;;
1414;SDS011;702;49.466;11.086;2023-10-31T10:39:16;2.40;;;0.97;;
1414;SDS011;702;49.466;11.086;2023-10-31T10:41:50;1.80;;;0.87;;
1414;SDS011;702;49.466;11.086;2023-10-31T10:44:20;2.60;;;0.80;;
1414;SDS011;702;49.466;11.086;2023-10-31T10:46:59;2.03;;;1.13;;
1414;SDS011;702;49.466;11.086;2023-10-31T10:49:29;1.90;;;0.80;;
1414;SDS011;702;49.466;11.086;2023-10-31T10:52:06;1.30;;;1.10;;
1414;SDS011;702;49.466;11.086;2023-10-31T10:54:51;1.30;;;0.93;;
1414;SDS011;702;49.466;11.086;2023-10-31T10:57:21;1.07;;;0.97;;
1414;SDS011;702;49.466;11.086;2023-10-31T11:00:02;1.27;;;1.10;;
1414;SDS011;702;49.466;11.086;2023-10-31T11:02:33;1.33;;;1.13;;
1414;SDS011;702;49.466;11.086;2023-10-31T11:05:04;1.53;;;1.20;;
1414;SDS011;702;49.466;11.086;2023-10-31T11:07:33;1.67;;;1.00;;
1414;SDS011;702;49.466;11.086;2023-10-31T11:10:03;1.80;;;1.30;;
1414;SDS011;702;49.466;11.086;2023-10-31T11:12:31;1.50;;;1.13;;
1414;SDS011;702;49.466;11.086;2023-10-31T11:15:01;1.20;;;1.00;;
1414;SDS011;702;49.466;11.086;2023-10-31T11:17:31;4.20;;;1.17;;
1414;SDS011;702;49.466;11.086;2023-10-31T11:20:01;3.60;;;1.30;;
1414;SDS011;702;49.466;11.086;2023-10-31T11:22:37;1.23;;;0.97;;
1414;SDS011;702;49.466;11.086;2023-10-31T11:25:08;1.40;;;1.07;;
1414;SDS011;702;49.466;11.086;2023-10-31T11:27:38;2.00;;;1.27;;
1414;SDS011;702;49.466;11.086;2023-10-31T11:30:07;1.10;;;1.00;;
1414;SDS011;702;49.466;11.086;2023-10-31T11:32:47;1.20;;;0.90;;
1414;SDS011;702;49.466;11.086;2023-10-31T11:35:16;1.60;;;1.03;;
1414;SDS011;702;49.466;11.086;2023-10-31T11:37:43;2.17;;;1.30;;
1414;SDS011;702;49.466;11.086;2023-10-31T11:40:18;1.50;;;1.23;;
1414;SDS011;702;49.466;11.086;2023-10-31T11:42:48;2.60;;;1.13;;
1414;SDS011;702;49.466;11.086;2023-10-31T11:45:27;2.40;;;1.30;;
1414;SDS011;702;49.466;11.086;2023-10-31T11:47:57;3.07;;;1.13;;
1414;SDS011;702;49.466;11.086;2023-10-31T11:50:24;2.20;;;1.00;;
1414;SDS011;702;49.466;11.086;2023-10-31T11:52:59;2.50;;;1.10;;
1414;SDS011;702;49.466;11.086;2023-10-31T11:55:34;2.23;;;1.10;;
1414;SDS011;702;49.466;11.086;2023-10-31T11:58:12;2.10;;;1.07;;
1414;SDS011;702;49.466;11.086;2023-10-31T12:00:44;1.03;;;0.93;;
1414;SDS011;702;49.466;11.086;2023-10-31T12:03:16;3.80;;;1.30;;
1414;SDS011;702;49.466;11.086;2023-10-31T12:05:50;5.83;;;1.93;;
1414;SDS011;702;49.466;11.086;2023-10-31T12:08:27;1.33;;;0.80;;
1414;SDS011;702;49.466;11.086;2023-10-31T12:11:07;2.00;;;1.00;;
1414;SDS011;702;49.466;11.086;2023-10-31T12:13:37;2.40;;;1.07;;
1414;SDS011;702;49.466;11.086;2023-10-31T12:16:06;1.40;;;1.20;;
1414;SDS011;702;49.466;11.086;2023-10-31T12:18:36;2.77;;;1.40;;
1414;SDS011;702;49.466;11.086;2023-10-31T12:21:06;1.90;;;1.10;;
1414;SDS011;702;49.466;11.086;2023-10-31T12:23:33;3.23;;;1.33;;
1414;SDS011;702;49.466;11.086;2023-10-31T12:26:00;3.50;;;1.50;;
1414;SDS011;702;49.466;11.086;2023-10-31T12:28:31;3.57;;;1.70;;
1414;SDS011;702;49.466;11.086;2023-10-31T12:30:58;1.30;;;0.93;;
1414;SDS011;702;49.466;11.086;2023-10-31T12:33:26;2.30;;;1.00;;
1414;SDS011;702;49.466;11.086;2023-10-31T12:35:56;2.80;;;1.00;;
1414;SDS011;702;49.466;11.086;2023-10-31T12:38:27;3.33;;;1.23;;
1414;SDS011;702;49.466;11.086;2023-10-31T12:40:55;2.37;;;1.20;;
1414;SDS011;702;49.466;11.086;2023-10-31T12:43:23;3.27;;;1.33;;
1414;SDS011;702;49.466;11.086;2023-10-31T12:45:54;3.43;;;1.40;;
1414;SDS011;702;49.466;11.086;2023-10-31T12:48:23;1.63;;;1.10;;
1414;SDS011;702;49.466;11.086;2023-10-31T12:50:56;9.00;;;1.70;;
1414;SDS011;702;49.466;11.086;2023-10-31T12:53:34;2.80;;;1.10;;
1414;SDS011;702;49.466;11.086;2023-10-31T12:56:01;6.43;;;1.30;;
1414;SDS011;702;49.466;11.086;2023-10-31T12:58:29;2.17;;;1.40;;
1414;SDS011;702;49.466;11.086;2023-10-31T13:00:59;4.30;;;1.07;;
1414;SDS011;702;49.466;11.086;2023-10-31T13:03:26;2.20;;;1.10;;
1414;SDS011;702;49.466;11.086;2023-10-31T13:05:53;2.30;;;1.40;;
1414;SDS011;702;49.466;11.086;2023-10-31T13:08:22;1.40;;;1.20;;
1414;SDS011;702;49.466;11.086;2023-10-31T13:10:49;7.30;;;1.07;;
1414;SDS011;702;49.466;11.086;2023-10-31T13:13:18;1.27;;;1.00;;
1414;SDS011;702;49.466;11.086;2023-10-31T13:15:46;3.00;;;1.30;;
1414;SDS011;702;49.466;11.086;2023-10-31T13:18:14;2.50;;;1.23;;
1414;SDS011;702;49.466;11.086;2023-10-31T13:20:42;1.27;;;1.17;;
1414;SDS011;702;49.466;11.086;2023-10-31T13:23:10;1.20;;;0.97;;
1414;SDS011;702;49.466;11.086;2023-10-31T13:25:37;2.27;;;1.10;;
1414;SDS011;702;49.466;11.086;2023-10-31T13:28:05;1.50;;;1.07;;
1414;SDS011;702;49.466;11.086;2023-10-31T13:30:36;3.63;;;1.13;;
1414;SDS011;702;49.466;11.086;2023-10-31T13:33:04;3.87;;;1.33;;
1414;SDS011;702;49.466;11.086;2023-10-31T13:35:35;2.90;;;1.40;;
1414;SDS011;702;49.466;11.086;2023-10-31T13:38:02;1.63;;;1.43;;
1414;SDS011;702;49.466;11.086;2023-10-31T13:40:30;1.83;;;1.00;;
1414;SDS011;702;49.466;11.086;2023-10-31T13:42:57;2.63;;;1.13;;
1414;SDS011;702;49.466;11.086;2023-10-31T13:45:24;1.50;;;0.77;;
1414;SDS011;702;49.466;11.086;2023-10-31T13:47:52;3.53;;;1.43;;
1414;SDS011;702;49.466;11.086;2023-10-31T13:50:19;1.77;;;1.07;;
1414;SDS011;702;49.466;11.086;2023-10-31T13:52:48;2.70;;;1.10;;
1414;SDS011;702;49.466;11.086;2023-10-31T13:55:15;2.60;;;1.27;;
1414;SDS011;702;49.466;11.086;2023-10-31T13:57:42;3.17;;;1.07;;
1414;SDS011;702;49.466;11.086;2023-10-31T14:00:10;2.30;;;1.20;;
1414;SDS011;702;49.466;11.086;2023-10-31T14:02:38;1.73;;;1.07;;
1414;SDS011;702;49.466;11.086;2023-10-31T14:05:07;1.50;;;1.00;;
1414;SDS011;702;49.466;11.086;2023-10-31T14:07:34;3.40;;;1.30;;
1414;SDS011;702;49.466;11.086;2023-10-31T14:10:04;1.90;;;1.10;;
1414;SDS011;702;49.466;11.086;2023-10-31T14:12:32;1.10;;;0.87;;
1414;SDS011;702;49.466;11.086;2023-10-31T14:14:59;2.33;;;1.20;;
1414;SDS011;702;49.466;11.086;2023-10-31T14:17:27;5.63;;;1.40;;
1414;SDS011;702;49.466;11.086;2023-10-31T14:19:54;2.90;;;0.90;;
1414;SDS011;702;49.466;11.086;2023-10-31T14:22:22;4.83;;;1.00;;
1414;SDS011;702;49.466;11.086;2023-10-31T14:24:49;3.43;;;0.77;;
1414;SDS011;702;49.466;11.086;2023-10-31T14:27:19;2.30;;;1.17;;
1414;SDS011;702;49.466;11.086;2023-10-31T14:29:46;2.30;;;1.20;;
1414;SDS011;702;49.466;11.086;2023-10-31T14:32:13;4.87;;;1.27;;
1414;SDS011;702;49.466;11.086;2023-10-31T14:34:41;1.63;;;0.97;;
1414;SDS011;702;49.466;11.086;2023-10-31T14:37:08;1.70;;;1.03;;
1414;SDS011;702;49.466;11.086;2023-10-31T14:39:36;1.93;;;1.07;;
1414;SDS011;702;49.466;11.086;2023-10-31T14:42:03;4.77;;;1.00;;
1414;SDS011;702;49.466;11.086;2023-10-31T14:44:32;1.77;;;1.00;;
1414;SDS011;702;49.466;11.086;2023-10-31T14:47:01;1.40;;;0.90;;
1414;SDS011;702;49.466;11.086;2023-10-31T14:49:28;3.73;;;0.97;;
1414;SDS011;702;49.466;11.086;2023-10-31T14:51:56;2.90;;;1.27;;
1414;SDS011;702;49.466;11.086;2023-10-31T14:54:24;3.03;;;1.03;;
1414;SDS011;702;49.466;11.086;2023-10-31T14:56:51;1.67;;;0.80;;
1414;SDS011;702;49.466;11.086;2023-10-31T14:59:18;1.80;;;1.27;;
1414;SDS011;702;49.466;11.086;2023-10-31T15:01:47;3.53;;;1.40;;
1414;SDS011;702;49.466;11.086;2023-10-31T15:04:14;1.97;;;1.10;;
1414;SDS011;702;49.466;11.086;2023-10-31T15:06:42;2.37;;;1.53;;
1414;SDS011;702;49.466;11.086;2023-10-31T15:09:10;3.47;;;1.70;;
1414;SDS011;702;49.466;11.086;2023-10-31T15:11:37;3.93;;;2.43;;
1414;SDS011;702;49.466;11.086;2023-10-31T15:14:05;5.60;;;2.07;;
1414;SDS011;702;49.466;11.086;2023-10-31T15:16:32;3.80;;;1.73;;
1414;SDS011;702;49.466;11.086;2023-10-31T15:19:00;1.60;;;1.43;;
1414;SDS011;702;49.466;11.086;2023-10-31T15:21:29;2.40;;;1.77;;